createdAt,value
2017-11-15T00:01:29.448Z,94.16
2017-11-15T00:03:57.054Z,94.02
2017-11-15T00:06:24.653Z,93.90
2017-11-15T00:08:52.249Z,94.22
2017-11-15T00:11:20.008Z,94.25
2017-11-15T00:13:47.608Z,94.25
2017-11-15T00:16:15.312Z,94.58
2017-11-15T00:18:42.910Z,95.01
2017-11-15T00:21:10.567Z,95.35
2017-11-15T00:23:38.146Z,95.40
2017-11-15T00:26:05.744Z,94.88
2017-11-15T00:28:33.323Z,94.92
2017-11-15T00:31:00.947Z,95.11
2017-11-15T00:33:28.507Z,95.33
2017-11-15T00:35:56.082Z,95.04
2017-11-15T00:38:23.741Z,94.92
2017-11-15T00:40:51.311Z,94.92
2017-11-15T00:43:18.867Z,95.01
2017-11-15T00:45:46.483Z,95.13
2017-11-15T00:48:14.100Z,95.32
2017-11-15T00:50:41.676Z,95.76
2017-11-15T00:53:09.312Z,96.08
2017-11-15T00:55:36.922Z,96.23
2017-11-15T00:58:04.523Z,95.79
2017-11-15T01:00:32.116Z,95.78
2017-11-15T01:02:59.695Z,95.76
2017-11-15T01:05:27.280Z,95.49
2017-11-15T01:07:54.874Z,95.49
2017-11-15T01:10:22.467Z,95.43
2017-11-15T01:12:50.090Z,95.50
2017-11-15T01:15:17.826Z,95.62
2017-11-15T01:17:45.421Z,95.80
2017-11-15T01:20:12.978Z,95.40
2017-11-15T01:22:40.615Z,95.09
2017-11-15T01:25:08.206Z,94.88
2017-11-15T01:27:35.792Z,94.81
2017-11-15T01:30:03.528Z,94.97
2017-11-15T01:32:31.110Z,94.99
2017-11-15T01:34:58.709Z,95.26
2017-11-15T01:37:26.404Z,95.47
2017-11-15T01:39:53.973Z,95.62
2017-11-15T01:42:21.611Z,95.40
2017-11-15T01:44:49.220Z,95.33
2017-11-15T01:47:16.852Z,95.38
2017-11-15T01:49:44.482Z,95.26
2017-11-15T01:52:12.165Z,95.24
2017-11-15T01:54:39.793Z,95.21
2017-11-15T01:57:07.620Z,94.88
2017-11-15T01:59:35.513Z,94.95
2017-11-15T02:02:03.445Z,94.80
2017-11-15T02:04:31.043Z,95.23
2017-11-15T02:06:58.623Z,95.08
2017-11-15T02:09:26.193Z,95.44
2017-11-15T02:11:53.775Z,95.52
2017-11-15T02:14:21.362Z,95.54
2017-11-15T02:16:48.966Z,95.26
2017-11-15T02:19:16.608Z,95.21
2017-11-15T02:21:44.203Z,94.63
2017-11-15T02:24:11.834Z,93.82
2017-11-15T02:26:39.417Z,94.25
2017-11-15T02:29:07.240Z,94.36
2017-11-15T02:31:34.836Z,94.82
2017-11-15T02:34:02.423Z,94.97
2017-11-15T02:36:30.072Z,94.91
2017-11-15T02:38:57.668Z,94.63
2017-11-15T02:41:25.279Z,94.83
2017-11-15T02:43:52.909Z,94.86
2017-11-15T02:46:20.560Z,94.63
2017-11-15T02:48:48.143Z,94.65
2017-11-15T02:51:15.794Z,94.82
2017-11-15T02:53:43.449Z,94.88
2017-11-15T02:56:11.321Z,94.76
2017-11-15T02:58:39.539Z,94.85
2017-11-15T03:01:09.169Z,94.83
2017-11-15T03:03:37.279Z,94.76
2017-11-15T03:06:04.874Z,94.77
2017-11-15T03:08:32.430Z,95.16
2017-11-15T03:11:00.055Z,95.65
2017-11-15T03:13:27.751Z,95.66
2017-11-15T03:15:55.344Z,95.56
2017-11-15T03:18:22.949Z,95.66
2017-11-15T03:20:50.595Z,95.37
2017-11-15T03:23:18.148Z,95.32
2017-11-15T03:25:45.752Z,95.26
2017-11-15T03:28:13.400Z,95.66
2017-11-15T03:30:40.962Z,95.20
2017-11-15T03:33:08.614Z,95.53
2017-11-15T03:35:36.257Z,95.47
2017-11-15T03:38:03.823Z,95.52
2017-11-15T03:40:31.469Z,95.23
2017-11-15T03:42:59.054Z,95.67
2017-11-15T03:45:26.659Z,95.55
2017-11-15T03:47:54.879Z,95.73
2017-11-15T03:50:22.545Z,95.52
2017-11-15T03:52:50.124Z,95.37
2017-11-15T03:55:17.776Z,95.32
2017-11-15T03:57:45.420Z,95.31
2017-11-15T04:00:13.008Z,94.97
2017-11-15T04:02:40.578Z,94.35
2017-11-15T04:05:08.182Z,94.77
2017-11-15T04:07:35.797Z,94.83
2017-11-15T04:10:03.480Z,95.02
2017-11-15T04:12:31.098Z,94.77
2017-11-15T04:14:58.672Z,94.53
2017-11-15T04:17:26.266Z,94.11
2017-11-15T04:19:53.906Z,93.58
2017-11-15T04:22:21.479Z,93.72
2017-11-15T04:24:49.063Z,93.28
2017-11-15T04:27:16.638Z,93.75
2017-11-15T04:29:44.251Z,94.15
2017-11-15T04:32:11.857Z,94.23
2017-11-15T04:34:39.463Z,94.58
2017-11-15T04:37:07.100Z,94.47
2017-11-15T04:39:38.320Z,94.54
2017-11-15T04:42:05.936Z,94.41
2017-11-15T04:44:33.553Z,94.63
2017-11-15T04:47:01.149Z,94.68
2017-11-15T04:49:29.316Z,94.52
2017-11-15T04:51:56.922Z,94.45
2017-11-15T04:54:24.524Z,93.43
2017-11-15T04:56:52.123Z,93.09
2017-11-15T04:59:19.740Z,93.34
2017-11-15T05:01:47.404Z,93.59
2017-11-15T05:04:14.978Z,93.72
2017-11-15T05:06:42.549Z,94.01
2017-11-15T05:09:10.346Z,94.29
2017-11-15T05:11:38.018Z,94.81
2017-11-15T05:14:05.628Z,94.95
2017-11-15T05:16:33.254Z,95.09
2017-11-15T05:19:00.899Z,94.92
2017-11-15T05:21:28.466Z,94.87
2017-11-15T05:23:56.037Z,94.78
2017-11-15T05:26:23.619Z,95.14
2017-11-15T05:28:51.190Z,94.49
2017-11-15T05:31:18.959Z,94.19
2017-11-15T05:33:46.534Z,93.60
2017-11-15T05:36:14.087Z,93.99
2017-11-15T05:38:41.693Z,93.85
2017-11-15T05:41:09.537Z,94.26
2017-11-15T05:43:37.164Z,94.69
2017-11-15T05:46:04.743Z,94.67
2017-11-15T05:48:32.333Z,95.33
2017-11-15T05:50:59.957Z,94.77
2017-11-15T05:53:27.547Z,94.28
2017-11-15T05:55:55.143Z,94.07
2017-11-15T05:58:22.701Z,93.68
2017-11-15T06:00:50.287Z,92.81
2017-11-15T06:03:17.898Z,92.41
2017-11-15T06:05:45.453Z,92.24
2017-11-15T06:08:13.045Z,92.69
2017-11-15T06:10:40.651Z,92.82
2017-11-15T06:13:08.352Z,92.85
2017-11-15T06:15:36.033Z,93.61
2017-11-15T06:18:03.967Z,93.45
2017-11-15T06:20:31.640Z,93.70
2017-11-15T06:22:59.227Z,93.99
2017-11-15T06:25:26.799Z,93.89
2017-11-15T06:27:54.442Z,93.81
2017-11-15T06:30:22.077Z,93.81
2017-11-15T06:32:49.721Z,93.36
2017-11-15T06:35:17.323Z,92.80
2017-11-15T06:37:44.933Z,92.76
2017-11-15T06:40:12.512Z,92.55
2017-11-15T06:42:40.080Z,92.89
2017-11-15T06:45:07.730Z,92.87
2017-11-15T06:47:35.783Z,93.02
2017-11-15T06:50:03.348Z,92.87
2017-11-15T06:52:30.921Z,92.30
2017-11-15T06:54:58.507Z,92.50
2017-11-15T06:57:26.068Z,92.44
2017-11-15T06:59:53.663Z,92.74
2017-11-15T07:02:21.274Z,93.06
2017-11-15T07:04:48.856Z,93.09
2017-11-15T07:07:17.079Z,93.57
2017-11-15T07:09:44.724Z,93.67
2017-11-15T07:12:12.384Z,93.12
2017-11-15T07:14:40.528Z,91.79
2017-11-15T07:17:08.109Z,91.73
2017-11-15T07:19:35.687Z,91.80
2017-11-15T07:22:03.748Z,92.05
2017-11-15T07:24:31.368Z,92.13
2017-11-15T07:26:58.915Z,91.76
2017-11-15T07:29:26.497Z,91.98
2017-11-15T07:31:54.110Z,91.99
2017-11-15T07:34:21.676Z,92.66
2017-11-15T07:36:49.261Z,93.08
2017-11-15T07:39:16.892Z,93.48
2017-11-15T07:41:44.449Z,93.99
2017-11-15T07:44:12.014Z,94.43
2017-11-15T07:46:39.594Z,94.75
2017-11-15T07:49:07.267Z,94.62
2017-11-15T07:51:34.889Z,94.55
2017-11-15T07:54:02.597Z,94.30
2017-11-15T07:56:30.169Z,94.34
2017-11-15T07:58:57.745Z,94.19
2017-11-15T08:01:25.311Z,94.01
2017-11-15T08:03:52.875Z,93.69
2017-11-15T08:06:20.489Z,93.44
2017-11-15T08:08:48.054Z,93.67
2017-11-15T08:11:15.638Z,93.16
2017-11-15T08:13:43.270Z,93.33
2017-11-15T08:16:10.902Z,93.36
2017-11-15T08:18:38.487Z,92.86
2017-11-15T08:21:06.075Z,92.68
2017-11-15T08:23:33.750Z,92.92
2017-11-15T08:26:01.334Z,93.02
2017-11-15T08:28:28.943Z,92.81
2017-11-15T08:30:56.536Z,92.47
2017-11-15T08:33:24.119Z,91.92
2017-11-15T08:35:51.709Z,91.49
2017-11-15T08:38:19.287Z,91.92
2017-11-15T08:40:46.878Z,91.25
2017-11-15T08:43:14.523Z,91.81
2017-11-15T08:45:43.013Z,91.55
2017-11-15T08:48:10.562Z,90.82
2017-11-15T08:50:38.214Z,91.06
2017-11-15T08:53:05.825Z,90.36
2017-11-15T08:55:33.372Z,89.98
2017-11-15T08:58:00.985Z,90.60
2017-11-15T09:00:29.556Z,90.54
2017-11-15T09:02:57.095Z,90.03
2017-11-15T09:05:24.673Z,90.56
2017-11-15T09:07:52.274Z,91.29
2017-11-15T09:10:19.971Z,89.79
2017-11-15T09:12:47.527Z,89.28
2017-11-15T09:15:15.155Z,89.06
2017-11-15T09:17:42.692Z,89.94
2017-11-15T09:20:10.234Z,90.17
2017-11-15T09:22:37.865Z,88.72
2017-11-15T09:25:05.521Z,88.83
2017-11-15T09:27:33.093Z,89.27
2017-11-15T09:30:03.602Z,88.17
2017-11-15T09:32:31.170Z,88.18
2017-11-15T09:34:58.754Z,87.67
2017-11-15T09:37:26.464Z,88.09
2017-11-15T09:39:54.024Z,89.29
2017-11-15T09:42:21.604Z,87.29
2017-11-15T09:44:49.225Z,86.59
2017-11-15T09:47:16.850Z,85.88
2017-11-15T09:49:44.444Z,86.01
2017-11-15T09:52:12.022Z,84.32
2017-11-15T09:54:39.610Z,84.66
2017-11-15T09:57:07.195Z,83.92
2017-11-15T09:59:34.784Z,83.94
2017-11-15T10:02:02.661Z,84.91
2017-11-15T10:04:30.257Z,84.57
2017-11-15T10:06:58.301Z,85.45
2017-11-15T10:09:25.853Z,85.85
2017-11-15T10:11:53.459Z,84.20
2017-11-15T10:14:23.152Z,85.46
2017-11-15T10:16:50.825Z,84.55
2017-11-15T10:19:18.404Z,84.66
2017-11-15T10:21:46.111Z,83.90
2017-11-15T10:24:13.841Z,85.48
2017-11-15T10:26:41.487Z,83.56
2017-11-15T10:29:10.167Z,83.55
2017-11-15T10:31:37.991Z,83.94
2017-11-15T10:34:05.657Z,83.12
2017-11-15T10:36:33.296Z,82.84
2017-11-15T10:39:01.045Z,82.78
2017-11-15T10:41:28.644Z,81.77
2017-11-15T10:43:56.262Z,81.88
2017-11-15T10:46:24.039Z,81.28
2017-11-15T10:48:51.766Z,82.08
2017-11-15T10:51:21.171Z,82.10
2017-11-15T10:53:48.871Z,80.91
2017-11-15T10:56:16.581Z,81.56
2017-11-15T10:58:44.405Z,81.32
2017-11-15T11:01:12.935Z,82.78
2017-11-15T11:03:42.372Z,81.37
2017-11-15T11:06:12.807Z,79.54
2017-11-15T11:08:41.561Z,80.68
2017-11-15T11:11:11.034Z,79.70
2017-11-15T11:13:38.926Z,81.51
2017-11-15T11:16:08.441Z,79.80
2017-11-15T11:18:37.856Z,79.98
2017-11-15T11:21:08.144Z,79.51
2017-11-15T11:23:36.055Z,79.30
2017-11-15T11:26:06.833Z,78.68
2017-11-15T11:28:34.759Z,78.95
2017-11-15T11:31:02.463Z,76.61
2017-11-15T11:33:30.224Z,76.69
2017-11-15T11:35:58.887Z,75.04
2017-11-15T11:38:28.540Z,75.96
2017-11-15T11:40:56.238Z,74.37
2017-11-15T11:43:25.539Z,74.35
2017-11-15T11:45:53.339Z,74.04
2017-11-15T11:48:21.017Z,74.32
2017-11-15T11:50:48.762Z,74.49
2017-11-15T11:53:17.151Z,74.01
2017-11-15T11:55:44.777Z,73.46
2017-11-15T11:58:13.810Z,68.70
2017-11-15T12:00:46.215Z,60.60
2017-11-15T12:03:14.284Z,60.41
2017-11-15T12:05:42.202Z,56.76
2017-11-15T12:08:10.235Z,56.44
2017-11-15T12:10:50.768Z,55.18
2017-11-15T12:13:19.190Z,54.99
2017-11-15T12:15:46.818Z,52.89
2017-11-15T12:18:15.134Z,51.57
2017-11-15T12:20:42.824Z,51.38
2017-11-15T12:23:10.828Z,54.63
2017-11-15T12:25:54.402Z,53.70
2017-11-15T12:28:23.223Z,56.38
2017-11-15T12:33:26.309Z,55.08
2017-11-15T12:35:53.974Z,54.83
2017-11-15T12:38:21.697Z,54.83
2017-11-15T12:40:49.387Z,55.06
2017-11-15T12:43:17.123Z,55.89
2017-11-15T12:45:44.818Z,55.40
2017-11-15T12:48:12.710Z,55.94
2017-11-15T12:50:40.352Z,55.68
2017-11-15T12:53:08.598Z,57.55
2017-11-15T12:55:37.023Z,59.65
2017-11-15T12:58:04.702Z,57.23
2017-11-15T13:00:32.419Z,57.76
2017-11-15T13:03:01.672Z,58.59
2017-11-15T13:05:30.496Z,59.13
2017-11-15T13:07:58.197Z,57.51
2017-11-15T13:13:18.882Z,58.14
2017-11-15T13:15:46.586Z,58.35
2017-11-15T13:18:14.350Z,57.66
2017-11-15T13:20:42.088Z,58.42
2017-11-15T13:23:10.053Z,58.81
2017-11-15T13:25:37.767Z,60.93
2017-11-15T13:28:05.551Z,60.08
2017-11-15T13:30:33.326Z,60.95
2017-11-15T13:33:00.965Z,58.87
2017-11-15T13:35:29.901Z,58.23
2017-11-15T13:37:57.713Z,59.46
2017-11-15T13:40:25.451Z,60.10
2017-11-15T13:42:53.152Z,60.22
2017-11-15T13:45:20.917Z,62.13
2017-11-15T13:47:48.631Z,63.42
2017-11-15T13:50:16.331Z,63.55
2017-11-15T13:52:44.944Z,63.97
2017-11-15T13:55:13.044Z,65.73
2017-11-15T13:57:40.956Z,65.24
2017-11-15T14:00:08.758Z,65.90
2017-11-15T14:02:36.457Z,66.34
2017-11-15T14:05:04.200Z,67.78
2017-11-15T14:07:31.900Z,67.53
2017-11-15T14:09:59.532Z,68.27
2017-11-15T14:12:27.844Z,67.84
2017-11-15T14:14:56.246Z,69.18
2017-11-15T14:17:24.125Z,68.85
2017-11-15T14:19:51.975Z,69.46
2017-11-15T14:22:19.802Z,70.33
2017-11-15T14:24:47.512Z,69.91
2017-11-15T14:27:15.215Z,70.62
2017-11-15T14:29:42.867Z,72.06
2017-11-15T14:32:10.545Z,72.91
2017-11-15T14:34:38.250Z,73.50
2017-11-15T14:37:07.167Z,73.92
2017-11-15T14:39:35.956Z,74.70
2017-11-15T14:42:03.761Z,74.75
2017-11-15T14:44:31.567Z,75.74
2017-11-15T14:46:59.250Z,77.09
2017-11-15T14:49:27.846Z,79.01
2017-11-15T14:51:55.637Z,79.92
2017-11-15T14:54:24.697Z,81.21
2017-11-15T14:56:52.482Z,81.70
2017-11-15T14:59:20.133Z,82.27
2017-11-15T15:01:47.997Z,83.17
2017-11-15T15:04:15.838Z,83.73
2017-11-15T15:06:43.631Z,84.35
2017-11-15T15:09:11.227Z,84.69
2017-11-15T15:11:38.827Z,85.19
2017-11-15T15:14:06.392Z,85.74
2017-11-15T15:16:34.797Z,86.41
2017-11-15T15:19:02.357Z,86.80
2017-11-15T15:21:29.923Z,86.96
2017-11-15T15:23:57.662Z,87.07
2017-11-15T15:26:25.294Z,87.38
2017-11-15T15:28:52.901Z,87.69
2017-11-15T15:31:20.461Z,87.81
2017-11-15T15:33:48.032Z,88.13
2017-11-15T15:36:18.123Z,88.60
2017-11-15T15:38:45.702Z,89.11
2017-11-15T15:41:13.568Z,89.31
2017-11-15T15:43:41.138Z,89.68
2017-11-15T15:46:08.698Z,90.11
2017-11-15T15:48:36.306Z,89.96
2017-11-15T15:51:03.863Z,89.97
2017-11-15T15:53:31.416Z,89.89
2017-11-15T15:56:01.270Z,90.08
2017-11-15T15:58:28.909Z,90.47
2017-11-15T16:00:56.459Z,90.85
2017-11-15T16:03:24.046Z,90.98
2017-11-15T16:05:51.631Z,91.13
2017-11-15T16:08:19.183Z,91.13
2017-11-15T16:10:46.772Z,91.17
2017-11-15T16:13:14.339Z,91.03
2017-11-15T16:15:41.891Z,91.08
2017-11-15T16:18:09.498Z,91.16
2017-11-15T16:20:37.052Z,91.39
2017-11-15T16:23:04.701Z,91.47
2017-11-15T16:25:32.306Z,91.49
2017-11-15T16:27:59.876Z,91.79
2017-11-15T16:30:27.440Z,92.07
2017-11-15T16:32:55.088Z,92.10
2017-11-15T16:35:22.661Z,92.58
2017-11-15T16:37:50.221Z,92.24
2017-11-15T16:40:18.132Z,91.47
2017-11-15T16:42:45.750Z,90.99
2017-11-15T16:45:17.017Z,90.69
2017-11-15T16:47:44.628Z,90.83
2017-11-15T16:50:12.199Z,90.98
2017-11-15T16:52:39.757Z,90.71
2017-11-15T16:55:07.363Z,91.00
2017-11-15T16:57:34.940Z,91.19
2017-11-15T17:00:02.565Z,91.26
2017-11-15T17:02:30.444Z,91.33
2017-11-15T17:04:58.012Z,91.46
2017-11-15T17:07:25.593Z,92.08
2017-11-15T17:09:53.177Z,92.17
2017-11-15T17:12:20.764Z,91.95
2017-11-15T17:14:48.346Z,91.75
2017-11-15T17:17:15.974Z,91.77
2017-11-15T17:19:43.552Z,91.90
2017-11-15T17:22:11.128Z,91.88
2017-11-15T17:24:39.117Z,91.96
2017-11-15T17:27:06.953Z,92.54
2017-11-15T17:29:34.541Z,92.54
2017-11-15T17:32:02.258Z,92.72
2017-11-15T17:34:30.029Z,93.26
2017-11-15T17:36:57.604Z,93.15
2017-11-15T17:39:25.191Z,93.16
2017-11-15T17:41:52.806Z,93.19
2017-11-15T17:44:20.444Z,93.02
2017-11-15T17:46:48.270Z,93.01
2017-11-15T17:49:15.843Z,93.42
2017-11-15T17:51:43.435Z,93.11
2017-11-15T17:54:11.055Z,93.26
2017-11-15T17:56:38.666Z,93.28
2017-11-15T17:59:06.265Z,93.28
2017-11-15T18:01:33.849Z,93.19
2017-11-15T18:04:01.434Z,93.30
2017-11-15T18:06:29.010Z,93.36
2017-11-15T18:08:56.598Z,93.32
2017-11-15T18:11:25.747Z,93.35
2017-11-15T18:13:58.354Z,93.19
2017-11-15T18:16:25.937Z,93.14
2017-11-15T18:18:53.555Z,93.14
2017-11-15T18:21:21.125Z,93.00
2017-11-15T18:23:48.758Z,92.96
2017-11-15T18:26:16.580Z,92.99
2017-11-15T18:28:44.281Z,93.05
2017-11-15T18:31:12.108Z,92.95
2017-11-15T18:33:40.558Z,93.01
2017-11-15T18:36:08.121Z,93.03
2017-11-15T18:38:36.527Z,93.18
2017-11-15T18:41:04.168Z,93.25
2017-11-15T18:43:31.780Z,93.62
2017-11-15T18:46:04.372Z,93.63
2017-11-15T18:48:31.989Z,93.49
2017-11-15T18:50:59.575Z,93.68
2017-11-15T18:53:27.151Z,93.72
2017-11-15T18:55:54.772Z,93.64
2017-11-15T18:58:23.016Z,93.79
2017-11-15T19:00:50.584Z,93.67
2017-11-15T19:03:18.184Z,93.55
2017-11-15T19:05:45.766Z,93.55
2017-11-15T19:08:13.356Z,93.26
2017-11-15T19:10:41.453Z,93.32
2017-11-15T19:13:10.450Z,93.55
2017-11-15T19:15:38.610Z,93.65
2017-11-15T19:18:06.888Z,93.74
2017-11-15T19:20:34.487Z,93.81
2017-11-15T19:23:02.079Z,94.17
2017-11-15T19:25:29.658Z,94.03
2017-11-15T19:27:58.382Z,94.12
2017-11-15T19:30:31.413Z,94.21
2017-11-15T19:33:01.437Z,94.53
2017-11-15T19:35:29.171Z,94.54
2017-11-15T19:37:56.800Z,94.21
2017-11-15T19:40:24.485Z,93.90
2017-11-15T19:42:52.069Z,94.00
2017-11-15T19:45:19.656Z,93.89
2017-11-15T19:47:47.235Z,93.82
2017-11-15T19:50:14.867Z,94.05
2017-11-15T19:52:42.427Z,94.04
2017-11-15T19:55:10.006Z,94.23
2017-11-15T19:57:37.633Z,94.47
2017-11-15T20:00:06.783Z,94.42
2017-11-15T20:02:35.114Z,94.00
2017-11-15T20:05:02.687Z,93.90
2017-11-15T20:07:30.317Z,93.58
2017-11-15T20:09:57.879Z,93.59
2017-11-15T20:12:25.475Z,93.81
2017-11-15T20:14:53.027Z,93.72
2017-11-15T20:17:22.053Z,94.12
2017-11-15T20:19:53.479Z,94.26
2017-11-15T20:22:21.157Z,94.21
2017-11-15T20:24:49.822Z,94.58
2017-11-15T20:27:17.448Z,94.54
2017-11-15T20:29:46.706Z,94.55
2017-11-15T20:32:14.279Z,94.76
2017-11-15T20:34:44.516Z,94.82
2017-11-15T20:37:13.081Z,94.80
2017-11-15T20:39:40.884Z,94.60
2017-11-15T20:42:08.448Z,94.88
2017-11-15T20:44:36.045Z,94.84
2017-11-15T20:47:04.010Z,94.98
2017-11-15T20:49:32.547Z,95.03
2017-11-15T20:52:00.111Z,94.89
2017-11-15T20:54:27.711Z,94.86
2017-11-15T20:56:55.269Z,94.87
2017-11-15T20:59:22.861Z,94.88
2017-11-15T21:01:50.459Z,95.05
2017-11-15T21:04:18.075Z,94.80
2017-11-15T21:06:45.728Z,95.10
2017-11-15T21:09:13.321Z,95.33
2017-11-15T21:11:40.953Z,95.56
2017-11-15T21:14:08.547Z,95.62
2017-11-15T21:16:36.148Z,95.39
2017-11-15T21:19:03.723Z,95.23
2017-11-15T21:21:31.357Z,95.18
2017-11-15T21:23:58.941Z,95.01
2017-11-15T21:26:28.442Z,94.89
2017-11-15T21:28:56.864Z,95.39
2017-11-15T21:31:24.494Z,95.38
2017-11-15T21:33:52.114Z,95.33
2017-11-15T21:38:58.257Z,95.87
2017-11-15T21:41:25.923Z,95.63
2017-11-15T21:43:53.543Z,96.25
2017-11-15T21:46:21.432Z,96.39
2017-11-15T21:48:49.002Z,96.66
2017-11-15T21:51:16.567Z,96.24
2017-11-15T21:53:44.966Z,96.07
2017-11-15T21:56:12.559Z,96.19
2017-11-15T21:58:40.110Z,96.03
2017-11-15T22:01:07.912Z,95.72
2017-11-15T22:03:35.509Z,95.69
2017-11-15T22:06:03.081Z,95.82
2017-11-15T22:08:30.653Z,95.68
2017-11-15T22:10:58.251Z,95.47
2017-11-15T22:13:25.897Z,95.94
2017-11-15T22:15:53.461Z,96.18
2017-11-15T22:18:21.029Z,96.00
2017-11-15T22:20:48.624Z,95.58
2017-11-15T22:23:16.190Z,94.77
2017-11-15T22:25:43.799Z,94.62
2017-11-15T22:28:11.542Z,95.16
2017-11-15T22:30:39.110Z,95.34
2017-11-15T22:33:06.814Z,95.67
2017-11-15T22:35:34.386Z,95.48
2017-11-15T22:38:01.988Z,95.33
2017-11-15T22:40:29.583Z,95.30
2017-11-15T22:42:57.149Z,95.22
2017-11-15T22:45:24.767Z,94.89
2017-11-15T22:47:52.359Z,94.73
2017-11-15T22:50:19.954Z,94.38
2017-11-15T22:52:47.571Z,94.13
2017-11-15T22:55:15.169Z,94.30
2017-11-15T22:57:42.736Z,94.61
2017-11-15T23:00:10.384Z,94.89
2017-11-15T23:02:37.960Z,94.88
2017-11-15T23:05:05.597Z,94.02
2017-11-15T23:07:33.211Z,93.84
2017-11-15T23:10:00.796Z,93.91
2017-11-15T23:15:19.318Z,94.47
2017-11-15T23:17:46.929Z,94.46
2017-11-15T23:20:15.450Z,93.96
2017-11-15T23:22:43.105Z,94.16
2017-11-15T23:25:10.771Z,94.25
2017-11-15T23:27:38.425Z,93.98
2017-11-15T23:30:06.910Z,94.09
2017-11-15T23:32:34.489Z,94.43
2017-11-15T23:35:02.048Z,94.61
2017-11-15T23:37:29.649Z,95.15
2017-11-15T23:39:57.291Z,95.07
2017-11-15T23:42:24.939Z,95.08
2017-11-15T23:44:53.832Z,94.62
2017-11-15T23:47:21.402Z,94.66
2017-11-15T23:49:48.975Z,94.88
2017-11-15T23:52:16.581Z,94.69
2017-11-15T23:54:44.164Z,94.56
2017-11-15T23:57:11.927Z,94.44
2017-11-15T23:59:39.512Z,94.37
